sensor_id;sensor_type;location;lat;lon;timestamp;pressure;altitude;pressure_sealevel;temperature;humidity
3250;BME280;1637;42.020;23.992;2023-09-07T00:00:42;93385.19;;;17.79;100.00
3250;BME280;1637;42.020;23.992;2023-09-07T00:03:09;93373.06;;;17.84;100.00
3250;BME280;1637;42.020;23.992;2023-09-07T00:05:35;93373.03;;;17.71;100.00
3250;BME280;1637;42.020;23.992;2023-09-07T00:08:03;93373.38;;;17.73;100.00
3250;BME280;1637;42.020;23.992;2023-09-07T00:10:30;93373.03;;;17.71;100.00
3250;BME280;1637;42.020;23.992;2023-09-07T00:12:58;93367.41;;;17.78;100.00
3250;BME280;1637;42.020;23.992;2023-09-07T00:15:25;93368.94;;;17.79;100.00
3250;BME280;1637;42.020;23.992;2023-09-07T00:17:52;93367.41;;;17.78;100.00
3250;BME280;1637;42.020;23.992;2023-09-07T00:20:18;93365.25;;;17.73;100.00
3250;BME280;1637;42.020;23.992;2023-09-07T00:22:47;93359.91;;;17.70;100.00
3250;BME280;1637;42.020;23.992;2023-09-07T00:25:13;93373.50;;;17.82;100.00
3250;BME280;1637;42.020;23.992;2023-09-07T00:27:41;93367.28;;;17.69;100.00
3250;BME280;1637;42.020;23.992;2023-09-07T00:30:10;93364.03;;;17.62;100.00
3250;BME280;1637;42.020;23.992;2023-09-07T00:32:37;93370.19;;;17.62;100.00
3250;BME280;1637;42.020;23.992;2023-09-07T00:35:05;93364.72;;;17.66;100.00
3250;BME280;1637;42.020;23.992;2023-09-07T00:37:32;93373.59;;;17.79;100.00
3250;BME280;1637;42.020;23.992;2023-09-07T00:39:59;93371.88;;;17.85;100.00
3250;BME280;1637;42.020;23.992;2023-09-07T00:42:25;93377.84;;;17.93;100.00
3250;BME280;1637;42.020;23.992;2023-09-07T00:44:53;93377.63;;;18.00;100.00
3250;BME280;1637;42.020;23.992;2023-09-07T00:47:21;93380.34;;;17.87;100.00
3250;BME280;1637;42.020;23.992;2023-09-07T00:49:49;93376.22;;;17.95;100.00
3250;BME280;1637;42.020;23.992;2023-09-07T00:52:17;93366.94;;;18.56;100.00
3250;BME280;1637;42.020;23.992;2023-09-07T00:54:45;93377.34;;;18.83;100.00
3250;BME280;1637;42.020;23.992;2023-09-07T00:57:12;93377.50;;;19.01;100.00
3250;BME280;1637;42.020;23.992;2023-09-07T00:59:38;93375.91;;;19.13;100.00
3250;BME280;1637;42.020;23.992;2023-09-07T01:02:05;93372.41;;;19.25;100.00
3250;BME280;1637;42.020;23.992;2023-09-07T01:04:34;93374.34;;;19.03;100.00
3250;BME280;1637;42.020;23.992;2023-09-07T01:07:03;93369.03;;;18.99;100.00
3250;BME280;1637;42.020;23.992;2023-09-07T01:09:32;93376.59;;;18.82;100.00
3250;BME280;1637;42.020;23.992;2023-09-07T01:12:02;93366.28;;;18.77;100.00
3250;BME280;1637;42.020;23.992;2023-09-07T01:14:30;93367.91;;;18.75;100.00
3250;BME280;1637;42.020;23.992;2023-09-07T01:16:57;93223.91;;;17.62;100.00
3250;BME280;1637;42.020;23.992;2023-09-07T01:19:24;93365.03;;;18.31;100.00
3250;BME280;1637;42.020;23.992;2023-09-07T01:21:52;93361.97;;;18.29;100.00
3250;BME280;1637;42.020;23.992;2023-09-07T01:24:20;93402.13;;;18.22;100.00
3250;BME280;1637;42.020;23.992;2023-09-07T01:26:48;93362.56;;;18.24;100.00
3250;BME280;1637;42.020;23.992;2023-09-07T01:29:15;93365.38;;;18.20;100.00
3250;BME280;1637;42.020;23.992;2023-09-07T01:31:43;93366.78;;;18.25;100.00
3250;BME280;1637;42.020;23.992;2023-09-07T01:34:10;93362.97;;;18.23;100.00
3250;BME280;1637;42.020;23.992;2023-09-07T01:36:37;93374.16;;;18.12;100.00
3250;BME280;1637;42.020;23.992;2023-09-07T01:39:06;93367.97;;;18.11;100.00
3250;BME280;1637;42.020;23.992;2023-09-07T01:41:33;93340.44;;;18.00;100.00
3250;BME280;1637;42.020;23.992;2023-09-07T01:44:00;93365.38;;;18.20;100.00
3250;BME280;1637;42.020;23.992;2023-09-07T01:46:27;93359.94;;;18.20;100.00
3250;BME280;1637;42.020;23.992;2023-09-07T01:48:54;93364.72;;;18.16;100.00
3250;BME280;1637;42.020;23.992;2023-09-07T01:51:21;93362.56;;;18.24;100.00
3250;BME280;1637;42.020;23.992;2023-09-07T01:53:48;93368.31;;;18.26;100.00
3250;BME280;1637;42.020;23.992;2023-09-07T01:56:16;93378.50;;;18.22;100.00
3250;BME280;1637;42.020;23.992;2023-09-07T01:58:43;93373.94;;;18.19;100.00
3250;BME280;1637;42.020;23.992;2023-09-07T02:01:20;93371.09;;;18.10;100.00
3250;BME280;1637;42.020;23.992;2023-09-07T02:03:48;93373.19;;;18.06;100.00
3250;BME280;1637;42.020;23.992;2023-09-07T02:06:14;93380.00;;;17.98;100.00
3250;BME280;1637;42.020;23.992;2023-09-07T02:08:41;93379.16;;;18.01;100.00
3250;BME280;1637;42.020;23.992;2023-09-07T02:11:08;93373.72;;;18.01;100.00
3250;BME280;1637;42.020;23.992;2023-09-07T02:13:36;93378.38;;;18.00;100.00
3250;BME280;1637;42.020;23.992;2023-09-07T02:16:04;93377.84;;;17.93;100.00
3250;BME280;1637;42.020;23.992;2023-09-07T02:18:31;93393.22;;;17.96;100.00
3250;BME280;1637;42.020;23.992;2023-09-07T02:21:02;93375.13;;;17.80;100.00
3250;BME280;1637;42.020;23.992;2023-09-07T02:23:29;93375.13;;;17.80;100.00
3250;BME280;1637;42.020;23.992;2023-09-07T02:25:56;93381.31;;;17.80;100.00
3250;BME280;1637;42.020;23.992;2023-09-07T02:28:23;93376.22;;;17.82;100.00
3250;BME280;1637;42.020;23.992;2023-09-07T02:30:51;93372.75;;;17.82;100.00
3250;BME280;1637;42.020;23.992;2023-09-07T02:33:18;93368.50;;;17.81;100.00
3250;BME280;1637;42.020;23.992;2023-09-07T02:35:47;93373.16;;;17.80;100.00
3250;BME280;1637;42.020;23.992;2023-09-07T02:38:14;93372.59;;;17.73;100.00
3250;BME280;1637;42.020;23.992;2023-09-07T02:40:41;93349.91;;;17.54;100.00
3250;BME280;1637;42.020;23.992;2023-09-07T02:43:08;93370.13;;;17.78;100.00
3250;BME280;1637;42.020;23.992;2023-09-07T02:45:35;93373.59;;;17.79;100.00
3250;BME280;1637;42.020;23.992;2023-09-07T02:48:04;93340.47;;;17.46;100.00
3250;BME280;1637;42.020;23.992;2023-09-07T02:51:00;93374.72;;;17.52;100.00
3250;BME280;1637;42.020;23.992;2023-09-07T02:53:27;93372.75;;;17.53;100.00
3250;BME280;1637;42.020;23.992;2023-09-07T02:55:53;93364.41;;;17.47;100.00
3250;BME280;1637;42.020;23.992;2023-09-07T02:58:21;93368.75;;;17.45;100.00
3250;BME280;1637;42.020;23.992;2023-09-07T03:00:48;93373.09;;;17.42;100.00
3250;BME280;1637;42.020;23.992;2023-09-07T03:03:15;93368.47;;;17.27;100.00
3250;BME280;1637;42.020;23.992;2023-09-07T03:05:43;93371.00;;;17.46;100.00
3250;BME280;1637;42.020;23.992;2023-09-07T03:08:10;93364.47;;;17.31;100.00
3250;BME280;1637;42.020;23.992;2023-09-07T03:10:37;93377.06;;;17.38;100.00
3250;BME280;1637;42.020;23.992;2023-09-07T03:13:05;93369.13;;;17.31;100.00
3250;BME280;1637;42.020;23.992;2023-09-07T03:15:32;93363.19;;;17.36;100.00
3250;BME280;1637;42.020;23.992;2023-09-07T03:17:59;93374.13;;;17.32;100.00
3250;BME280;1637;42.020;23.992;2023-09-07T03:20:27;93379.63;;;17.29;100.00
3250;BME280;1637;42.020;23.992;2023-09-07T03:22:54;93379.16;;;17.17;100.00
3250;BME280;1637;42.020;23.992;2023-09-07T03:25:22;93381.38;;;17.06;100.00
3250;BME280;1637;42.020;23.992;2023-09-07T03:27:49;93376.03;;;16.90;100.00
3250;BME280;1637;42.020;23.992;2023-09-07T03:30:16;93380.25;;;16.91;100.00
3250;BME280;1637;42.020;23.992;2023-09-07T03:32:43;93386.63;;;16.68;100.00
3250;BME280;1637;42.020;23.992;2023-09-07T03:35:10;93377.41;;;16.66;100.00
3250;BME280;1637;42.020;23.992;2023-09-07T03:37:38;93385.09;;;16.51;100.00
3250;BME280;1637;42.020;23.992;2023-09-07T03:40:06;93394.91;;;16.29;100.00
3250;BME280;1637;42.020;23.992;2023-09-07T03:42:35;93391.50;;;16.25;100.00
3250;BME280;1637;42.020;23.992;2023-09-07T03:45:02;93389.41;;;16.16;100.00
3250;BME280;1637;42.020;23.992;2023-09-07T03:47:29;93396.06;;;16.28;100.00
3250;BME280;1637;42.020;23.992;2023-09-07T03:49:56;93397.34;;;16.23;100.00
3250;BME280;1637;42.020;23.992;2023-09-07T03:52:24;93402.22;;;16.12;100.00
3250;BME280;1637;42.020;23.992;2023-09-07T03:54:53;93400.03;;;16.07;100.00
3250;BME280;1637;42.020;23.992;2023-09-07T03:57:21;93398.41;;;15.93;100.00
3250;BME280;1637;42.020;23.992;2023-09-07T03:59:48;93396.88;;;15.92;100.00
3250;BME280;1637;42.020;23.992;2023-09-07T04:02:15;93404.50;;;15.97;100.00
3250;BME280;1637;42.020;23.992;2023-09-07T04:04:43;93404.44;;;16.17;100.00
3250;BME280;1637;42.020;23.992;2023-09-07T04:07:09;93403.06;;;15.93;100.00
3250;BME280;1637;42.020;23.992;2023-09-07T04:09:36;93391.56;;;15.89;100.00
3250;BME280;1637;42.020;23.992;2023-09-07T04:12:05;93400.69;;;15.95;100.00
3250;BME280;1637;42.020;23.992;2023-09-07T04:14:32;93403.69;;;15.80;100.00
3250;BME280;1637;42.020;23.992;2023-09-07T04:16:59;93403.22;;;16.02;100.00
3250;BME280;1637;42.020;23.992;2023-09-07T04:19:26;93403.59;;;16.36;100.00
3250;BME280;1637;42.020;23.992;2023-09-07T04:21:53;93395.56;;;16.17;100.00
3250;BME280;1637;42.020;23.992;2023-09-07T04:24:20;93399.31;;;15.87;100.00
3250;BME280;1637;42.020;23.992;2023-09-07T04:26:47;93404.38;;;15.85;100.00
3250;BME280;1637;42.020;23.992;2023-09-07T04:29:16;93412.13;;;16.35;100.00
3250;BME280;1637;42.020;23.992;2023-09-07T04:31:42;93411.06;;;16.65;100.00
3250;BME280;1637;42.020;23.992;2023-09-07T04:34:09;93410.81;;;17.21;100.00
3250;BME280;1637;42.020;23.992;2023-09-07T04:36:36;93409.03;;;17.72;97.50
3250;BME280;1637;42.020;23.992;2023-09-07T04:39:03;93417.44;;;17.61;95.32
3250;BME280;1637;42.020;23.992;2023-09-07T04:41:30;93394.16;;;17.35;97.45
3250;BME280;1637;42.020;23.992;2023-09-07T04:43:57;93426.03;;;17.72;96.39
3250;BME280;1637;42.020;23.992;2023-09-07T04:46:25;93423.03;;;17.83;94.75
3250;BME280;1637;42.020;23.992;2023-09-07T04:48:52;93420.22;;;18.12;93.99
3250;BME280;1637;42.020;23.992;2023-09-07T04:51:19;93427.28;;;17.97;94.48
3250;BME280;1637;42.020;23.992;2023-09-07T04:53:47;93420.84;;;17.78;94.68
3250;BME280;1637;42.020;23.992;2023-09-07T04:56:14;93419.31;;;17.48;95.64
3250;BME280;1637;42.020;23.992;2023-09-07T04:58:41;93424.59;;;17.68;94.25
3250;BME280;1637;42.020;23.992;2023-09-07T05:01:10;93431.09;;;18.37;93.90
3250;BME280;1637;42.020;23.992;2023-09-07T05:03:39;93436.84;;;19.25;90.30
3250;BME280;1637;42.020;23.992;2023-09-07T05:06:06;93440.28;;;20.03;85.43
3250;BME280;1637;42.020;23.992;2023-09-07T05:08:33;93444.22;;;20.33;81.02
3250;BME280;1637;42.020;23.992;2023-09-07T05:11:01;93425.84;;;21.05;73.87
3250;BME280;1637;42.020;23.992;2023-09-07T05:13:29;93449.03;;;21.82;72.28
3250;BME280;1637;42.020;23.992;2023-09-07T05:15:57;93447.09;;;22.01;72.35
3250;BME280;1637;42.020;23.992;2023-09-07T05:18:24;93443.13;;;21.84;72.63
3250;BME280;1637;42.020;23.992;2023-09-07T05:20:52;93458.31;;;21.57;73.65
3250;BME280;1637;42.020;23.992;2023-09-07T05:23:20;93446.78;;;21.81;73.65
3250;BME280;1637;42.020;23.992;2023-09-07T05:25:48;93451.19;;;21.33;75.09
3250;BME280;1637;42.020;23.992;2023-09-07T05:28:16;93451.59;;;21.95;72.14
3250;BME280;1637;42.020;23.992;2023-09-07T05:30:43;93424.38;;;21.77;73.71
3250;BME280;1637;42.020;23.992;2023-09-07T05:33:11;93449.38;;;21.48;75.38
3250;BME280;1637;42.020;23.992;2023-09-07T05:35:38;93446.78;;;21.35;75.86
3250;BME280;1637;42.020;23.992;2023-09-07T05:38:06;93451.66;;;21.58;74.56
3250;BME280;1637;42.020;23.992;2023-09-07T05:40:34;93455.25;;;21.83;71.76
3250;BME280;1637;42.020;23.992;2023-09-07T05:43:01;93447.69;;;22.47;72.14
3250;BME280;1637;42.020;23.992;2023-09-07T05:45:29;93451.78;;;22.94;70.46
3250;BME280;1637;42.020;23.992;2023-09-07T05:47:56;93452.69;;;21.70;73.19
3250;BME280;1637;42.020;23.992;2023-09-07T05:50:23;93462.13;;;21.02;72.70
3250;BME280;1637;42.020;23.992;2023-09-07T05:52:50;93451.66;;;20.82;74.49
3250;BME280;1637;42.020;23.992;2023-09-07T05:55:18;93459.28;;;20.96;73.04
3250;BME280;1637;42.020;23.992;2023-09-07T05:57:45;93459.00;;;21.12;73.63
3250;BME280;1637;42.020;23.992;2023-09-07T06:00:13;93432.31;;;22.26;70.60
3250;BME280;1637;42.020;23.992;2023-09-07T06:02:40;93462.59;;;23.60;65.84
3250;BME280;1637;42.020;23.992;2023-09-07T06:05:07;93467.25;;;23.69;65.28
3250;BME280;1637;42.020;23.992;2023-09-07T06:07:35;93465.63;;;24.59;62.33
3250;BME280;1637;42.020;23.992;2023-09-07T06:10:04;93456.97;;;24.96;60.84
3250;BME280;1637;42.020;23.992;2023-09-07T06:12:33;93462.53;;;25.77;59.45
3250;BME280;1637;42.020;23.992;2023-09-07T06:15:01;93463.22;;;24.96;61.38
3250;BME280;1637;42.020;23.992;2023-09-07T06:17:28;93464.50;;;26.23;58.53
3250;BME280;1637;42.020;23.992;2023-09-07T06:19:55;93460.22;;;25.70;58.22
3250;BME280;1637;42.020;23.992;2023-09-07T06:22:22;93462.84;;;26.31;57.19
3250;BME280;1637;42.020;23.992;2023-09-07T06:24:49;93470.19;;;25.93;59.67
3250;BME280;1637;42.020;23.992;2023-09-07T06:27:16;93462.91;;;26.37;57.53
3250;BME280;1637;42.020;23.992;2023-09-07T06:29:44;93477.47;;;25.96;56.84
3250;BME280;1637;42.020;23.992;2023-09-07T06:32:11;93489.81;;;25.86;58.76
3250;BME280;1637;42.020;23.992;2023-09-07T06:34:39;93468.28;;;25.79;57.81
3250;BME280;1637;42.020;23.992;2023-09-07T06:37:06;93475.25;;;25.60;58.40
3250;BME280;1637;42.020;23.992;2023-09-07T06:39:33;93471.88;;;23.29;63.36
3250;BME280;1637;42.020;23.992;2023-09-07T06:41:59;93456.66;;;23.38;65.93
3250;BME280;1637;42.020;23.992;2023-09-07T06:44:26;93470.25;;;24.68;62.92
3250;BME280;1637;42.020;23.992;2023-09-07T06:46:54;93470.31;;;25.23;60.36
3250;BME280;1637;42.020;23.992;2023-09-07T06:49:21;93472.19;;;26.70;54.66
3250;BME280;1637;42.020;23.992;2023-09-07T06:51:48;93474.22;;;27.07;53.72
3250;BME280;1637;42.020;23.992;2023-09-07T06:54:15;93475.84;;;26.93;52.95
3250;BME280;1637;42.020;23.992;2023-09-07T06:56:42;93470.03;;;24.86;57.69
3250;BME280;1637;42.020;23.992;2023-09-07T06:59:09;93473.81;;;26.05;56.00
3250;BME280;1637;42.020;23.992;2023-09-07T07:01:35;93462.56;;;26.86;54.58
3250;BME280;1637;42.020;23.992;2023-09-07T07:04:04;93466.00;;;25.98;55.44
3250;BME280;1637;42.020;23.992;2023-09-07T07:06:31;93483.06;;;24.77;59.27
3250;BME280;1637;42.020;23.992;2023-09-07T07:08:57;93466.72;;;25.52;55.71
3250;BME280;1637;42.020;23.992;2023-09-07T07:11:24;93462.31;;;26.53;55.62
3250;BME280;1637;42.020;23.992;2023-09-07T07:13:51;93455.56;;;26.28;54.99
3250;BME280;1637;42.020;23.992;2023-09-07T07:16:18;93459.72;;;25.92;57.33
3250;BME280;1637;42.020;23.992;2023-09-07T07:18:45;93448.19;;;25.27;57.99
3250;BME280;1637;42.020;23.992;2023-09-07T07:21:13;93452.91;;;26.33;54.23
3250;BME280;1637;42.020;23.992;2023-09-07T07:23:40;93457.56;;;25.81;55.58
3250;BME280;1637;42.020;23.992;2023-09-07T07:26:07;93449.41;;;24.41;57.72
3250;BME280;1637;42.020;23.992;2023-09-07T07:28:34;93455.13;;;23.84;60.25
3250;BME280;1637;42.020;23.992;2023-09-07T07:31:07;93441.44;;;22.98;64.47
3250;BME280;1637;42.020;23.992;2023-09-07T07:33:34;93435.78;;;22.78;65.25
3250;BME280;1637;42.020;23.992;2023-09-07T07:36:03;93446.72;;;23.02;63.74
3250;BME280;1637;42.020;23.992;2023-09-07T07:38:31;93439.38;;;23.08;65.84
3250;BME280;1637;42.020;23.992;2023-09-07T07:40:58;93435.41;;;22.52;63.96
3250;BME280;1637;42.020;23.992;2023-09-07T07:43:24;93435.25;;;22.46;62.79
3250;BME280;1637;42.020;23.992;2023-09-07T07:45:52;93438.03;;;22.37;61.68
3250;BME280;1637;42.020;23.992;2023-09-07T07:48:18;93433.44;;;22.01;64.50
3250;BME280;1637;42.020;23.992;2023-09-07T07:50:46;93435.53;;;22.15;64.16
3250;BME280;1637;42.020;23.992;2023-09-07T07:53:12;93443.13;;;21.93;63.68
3250;BME280;1637;42.020;23.992;2023-09-07T07:55:41;93447.19;;;22.16;64.08
3250;BME280;1637;42.020;23.992;2023-09-07T07:58:08;93410.31;;;22.29;64.27
3250;BME280;1637;42.020;23.992;2023-09-07T08:00:36;93448.38;;;22.66;61.25
3250;BME280;1637;42.020;23.992;2023-09-07T08:03:03;93446.41;;;22.24;63.91
3250;BME280;1637;42.020;23.992;2023-09-07T08:05:31;93441.59;;;21.92;62.87
3250;BME280;1637;42.020;23.992;2023-09-07T08:07:58;93446.78;;;21.63;64.50
3250;BME280;1637;42.020;23.992;2023-09-07T08:10:25;93439.06;;;21.43;65.41
3250;BME280;1637;42.020;23.992;2023-09-07T08:12:55;93447.22;;;21.24;66.11
3250;BME280;1637;42.020;23.992;2023-09-07T08:15:22;93448.06;;;20.94;67.30
3250;BME280;1637;42.020;23.992;2023-09-07T08:17:50;93447.94;;;21.07;66.47
3250;BME280;1637;42.020;23.992;2023-09-07T08:20:17;93451.72;;;21.09;67.57
3250;BME280;1637;42.020;23.992;2023-09-07T08:22:44;93431.09;;;20.90;66.66
3250;BME280;1637;42.020;23.992;2023-09-07T08:25:11;93451.06;;;20.78;68.36
3250;BME280;1637;42.020;23.992;2023-09-07T08:27:38;93457.72;;;20.86;68.32
3250;BME280;1637;42.020;23.992;2023-09-07T08:30:11;93460.13;;;20.75;68.53
3250;BME280;1637;42.020;23.992;2023-09-07T08:32:38;93460.34;;;20.99;68.71
3250;BME280;1637;42.020;23.992;2023-09-07T08:35:05;93461.25;;;21.05;67.80
3250;BME280;1637;42.020;23.992;2023-09-07T08:37:34;93476.50;;;21.02;66.51
3250;BME280;1637;42.020;23.992;2023-09-07T08:40:01;93463.31;;;20.82;67.67
3250;BME280;1637;42.020;23.992;2023-09-07T08:42:30;93471.31;;;20.77;67.34
3250;BME280;1637;42.020;23.992;2023-09-07T08:44:57;93460.25;;;20.71;67.34
3250;BME280;1637;42.020;23.992;2023-09-07T08:47:33;93428.13;;;20.48;67.11
3250;BME280;1637;42.020;23.992;2023-09-07T08:50:01;93460.56;;;20.73;67.12
3250;BME280;1637;42.020;23.992;2023-09-07T08:52:28;93462.09;;;20.83;68.02
3250;BME280;1637;42.020;23.992;2023-09-07T08:54:56;93453.47;;;20.76;68.04
3250;BME280;1637;42.020;23.992;2023-09-07T08:57:26;93455.59;;;20.81;68.29
3250;BME280;1637;42.020;23.992;2023-09-07T08:59:53;93465.88;;;20.86;68.07
3250;BME280;1637;42.020;23.992;2023-09-07T09:02:20;93451.41;;;21.07;68.15
3250;BME280;1637;42.020;23.992;2023-09-07T09:04:48;93451.97;;;20.84;68.44
3250;BME280;1637;42.020;23.992;2023-09-07T09:07:16;93452.72;;;20.75;69.10
3250;BME280;1637;42.020;23.992;2023-09-07T09:09:42;93444.31;;;20.61;69.59
3250;BME280;1637;42.020;23.992;2023-09-07T09:12:10;93449.50;;;20.68;69.34
3250;BME280;1637;42.020;23.992;2023-09-07T09:14:38;93441.41;;;20.46;70.90
3250;BME280;1637;42.020;23.992;2023-09-07T09:17:05;93450.50;;;21.01;68.87
3250;BME280;1637;42.020;23.992;2023-09-07T09:19:33;93452.63;;;21.06;70.30
3250;BME280;1637;42.020;23.992;2023-09-07T09:22:01;93441.03;;;21.33;69.08
3250;BME280;1637;42.020;23.992;2023-09-07T09:24:32;93443.59;;;21.64;68.70
3250;BME280;1637;42.020;23.992;2023-09-07T09:26:59;93444.38;;;21.55;67.84
3250;BME280;1637;42.020;23.992;2023-09-07T09:29:26;93430.75;;;21.37;68.28
3250;BME280;1637;42.020;23.992;2023-09-07T09:31:53;93449.66;;;21.32;67.96
3250;BME280;1637;42.020;23.992;2023-09-07T09:34:20;93450.47;;;20.92;70.16
3250;BME280;1637;42.020;23.992;2023-09-07T09:36:47;93454.06;;;20.80;71.18
3250;BME280;1637;42.020;23.992;2023-09-07T09:39:23;93454.78;;;20.62;72.79
3250;BME280;1637;42.020;23.992;2023-09-07T09:41:51;93440.66;;;20.45;73.24
3250;BME280;1637;42.020;23.992;2023-09-07T09:44:20;93451.09;;;20.47;72.65
3250;BME280;1637;42.020;23.992;2023-09-07T09:46:51;93443.81;;;20.44;74.27
3250;BME280;1637;42.020;23.992;2023-09-07T09:49:20;93455.56;;;20.72;73.68
3250;BME280;1637;42.020;23.992;2023-09-07T09:51:48;93466.00;;;20.73;73.31
3250;BME280;1637;42.020;23.992;2023-09-07T09:54:16;93456.41;;;20.59;73.05
3250;BME280;1637;42.020;23.992;2023-09-07T09:56:44;93451.16;;;20.65;73.31
3250;BME280;1637;42.020;23.992;2023-09-07T09:59:12;93470.25;;;20.83;74.08
3250;BME280;1637;42.020;23.992;2023-09-07T10:01:43;93450.22;;;21.08;73.08
3250;BME280;1637;42.020;23.992;2023-09-07T10:04:12;93455.38;;;21.15;70.87
3250;BME280;1637;42.020;23.992;2023-09-07T10:06:50;93444.59;;;21.03;71.72
3250;BME280;1637;42.020;23.992;2023-09-07T10:09:17;93441.91;;;21.12;72.75
3250;BME280;1637;42.020;23.992;2023-09-07T10:11:51;93439.94;;;21.12;72.58
3250;BME280;1637;42.020;23.992;2023-09-07T10:14:20;93438.09;;;21.09;72.60
3250;BME280;1637;42.020;23.992;2023-09-07T10:16:48;93447.81;;;21.19;71.64
3250;BME280;1637;42.020;23.992;2023-09-07T10:19:17;93448.28;;;21.27;72.00
3250;BME280;1637;42.020;23.992;2023-09-07T10:21:44;93444.75;;;21.08;72.44
3250;BME280;1637;42.020;23.992;2023-09-07T10:24:12;93444.34;;;21.28;72.81
3250;BME280;1637;42.020;23.992;2023-09-07T10:26:57;93433.00;;;21.48;77.76
3250;BME280;1637;42.020;23.992;2023-09-07T10:29:25;93440.44;;;21.38;77.31
3250;BME280;1637;42.020;23.992;2023-09-07T10:31:52;93441.75;;;21.15;74.64
3250;BME280;1637;42.020;23.992;2023-09-07T10:34:19;93443.06;;;21.02;74.38
3250;BME280;1637;42.020;23.992;2023-09-07T10:36:47;93438.13;;;21.18;72.37
3250;BME280;1637;42.020;23.992;2023-09-07T10:39:16;93434.22;;;21.47;73.88
3250;BME280;1637;42.020;23.992;2023-09-07T10:41:44;93408.19;;;21.27;72.67
3250;BME280;1637;42.020;23.992;2023-09-07T10:44:12;93436.81;;;21.59;70.00
3250;BME280;1637;42.020;23.992;2023-09-07T10:46:39;93452.09;;;21.57;70.02
3250;BME280;1637;42.020;23.992;2023-09-07T10:49:07;93443.59;;;21.64;68.27
3250;BME280;1637;42.020;23.992;2023-09-07T10:51:41;93441.19;;;21.66;70.61
3250;BME280;1637;42.020;23.992;2023-09-07T10:54:15;93447.25;;;21.70;71.91
3250;BME280;1637;42.020;23.992;2023-09-07T10:56:44;93447.66;;;21.87;71.74
3250;BME280;1637;42.020;23.992;2023-09-07T10:59:13;93440.25;;;21.87;71.81
3250;BME280;1637;42.020;23.992;2023-09-07T11:01:40;93455.28;;;22.01;71.75
3250;BME280;1637;42.020;23.992;2023-09-07T11:04:07;93448.41;;;22.15;67.33
3250;BME280;1637;42.020;23.992;2023-09-07T11:06:36;93448.56;;;22.20;68.43
3250;BME280;1637;42.020;23.992;2023-09-07T11:09:04;93445.56;;;22.00;67.44
3250;BME280;1637;42.020;23.992;2023-09-07T11:11:34;93443.56;;;21.91;69.29
3250;BME280;1637;42.020;23.992;2023-09-07T11:14:02;93439.47;;;22.05;67.46
3250;BME280;1637;42.020;23.992;2023-09-07T11:16:30;93436.84;;;22.29;67.07
3250;BME280;1637;42.020;23.992;2023-09-07T11:18:57;93439.97;;;22.46;66.50
3250;BME280;1637;42.020;23.992;2023-09-07T11:21:25;93432.72;;;22.85;66.88
3250;BME280;1637;42.020;23.992;2023-09-07T11:23:52;93438.44;;;22.87;65.09
3250;BME280;1637;42.020;23.992;2023-09-07T11:26:20;93419.50;;;22.83;63.21
3250;BME280;1637;42.020;23.992;2023-09-07T11:28:48;93427.47;;;22.96;63.31
3250;BME280;1637;42.020;23.992;2023-09-07T11:31:18;93407.00;;;22.91;64.30
3250;BME280;1637;42.020;23.992;2023-09-07T11:33:48;93416.97;;;23.04;60.43
3250;BME280;1637;42.020;23.992;2023-09-07T11:36:15;93419.69;;;23.27;60.67
3250;BME280;1637;42.020;23.992;2023-09-07T11:38:43;93424.06;;;23.49;60.82
3250;BME280;1637;42.020;23.992;2023-09-07T11:41:10;93406.75;;;23.52;62.17
3250;BME280;1637;42.020;23.992;2023-09-07T11:43:37;93396.91;;;23.07;61.98
3250;BME280;1637;42.020;23.992;2023-09-07T11:46:05;93397.13;;;22.94;60.42
3250;BME280;1637;42.020;23.992;2023-09-07T11:48:32;93401.41;;;22.53;61.05
3250;BME280;1637;42.020;23.992;2023-09-07T11:51:01;93389.75;;;22.52;62.00
3250;BME280;1637;42.020;23.992;2023-09-07T11:53:28;93398.00;;;22.67;62.18
3250;BME280;1637;42.020;23.992;2023-09-07T11:55:56;93395.41;;;22.73;62.23
3250;BME280;1637;42.020;23.992;2023-09-07T11:58:24;93400.28;;;22.69;60.84
3250;BME280;1637;42.020;23.992;2023-09-07T12:00:52;93398.59;;;22.80;61.54
3250;BME280;1637;42.020;23.992;2023-09-07T12:03:19;93407.25;;;22.70;60.71
3250;BME280;1637;42.020;23.992;2023-09-07T12:05:46;93402.09;;;22.72;61.15
3250;BME280;1637;42.020;23.992;2023-09-07T12:08:14;93401.19;;;22.66;61.31
3250;BME280;1637;42.020;23.992;2023-09-07T12:10:41;93401.72;;;22.88;60.19
3250;BME280;1637;42.020;23.992;2023-09-07T12:13:07;93399.06;;;22.70;60.25
3250;BME280;1637;42.020;23.992;2023-09-07T12:15:34;93390.47;;;22.62;59.60
3250;BME280;1637;42.020;23.992;2023-09-07T12:18:01;93397.25;;;22.67;60.24
3250;BME280;1637;42.020;23.992;2023-09-07T12:20:28;93417.94;;;22.91;60.13
3250;BME280;1637;42.020;23.992;2023-09-07T12:22:55;93387.41;;;22.93;60.46
3250;BME280;1637;42.020;23.992;2023-09-07T12:25:23;93385.41;;;23.03;59.51
3250;BME280;1637;42.020;23.992;2023-09-07T12:27:50;93382.06;;;22.99;58.24
3250;BME280;1637;42.020;23.992;2023-09-07T12:30:18;93383.94;;;22.59;59.12
3250;BME280;1637;42.020;23.992;2023-09-07T12:32:46;93379.88;;;22.55;60.43
3250;BME280;1637;42.020;23.992;2023-09-07T12:35:12;93384.03;;;22.74;59.48
3250;BME280;1637;42.020;23.992;2023-09-07T12:37:40;93381.91;;;22.78;61.26
3250;BME280;1637;42.020;23.992;2023-09-07T12:40:08;93383.59;;;22.67;59.86
3250;BME280;1637;42.020;23.992;2023-09-07T12:42:40;93386.69;;;22.59;59.13
3250;BME280;1637;42.020;23.992;2023-09-07T12:45:08;93381.06;;;22.63;59.98
3250;BME280;1637;42.020;23.992;2023-09-07T12:47:36;93384.88;;;22.56;59.13
3250;BME280;1637;42.020;23.992;2023-09-07T12:50:03;93385.06;;;22.77;59.89
3250;BME280;1637;42.020;23.992;2023-09-07T12:52:30;93387.50;;;22.84;58.77
3250;BME280;1637;42.020;23.992;2023-09-07T12:54:57;93376.56;;;22.84;59.23
3250;BME280;1637;42.020;23.992;2023-09-07T12:57:24;93381.66;;;22.91;59.37
3250;BME280;1637;42.020;23.992;2023-09-07T12:59:52;93375.97;;;22.80;59.13
3250;BME280;1637;42.020;23.992;2023-09-07T13:02:19;93386.16;;;23.03;59.83
3250;BME280;1637;42.020;23.992;2023-09-07T13:04:46;93380.78;;;23.09;59.76
3250;BME280;1637;42.020;23.992;2023-09-07T13:07:13;93370.22;;;23.02;58.16
3250;BME280;1637;42.020;23.992;2023-09-07T13:09:42;93378.47;;;23.16;57.82